Time;durP1;ratioP1;P1;durP2;ratioP2;P2;SDS_P1;SDS_P2;PMS_P1;PMS_P2;Temp;Humidity;BMP_temperature;BMP_pressure;BME280_temperature;BME280_humidity;BME280_pressure;Samples;Min_cycle;Max_cycle;Signal;HPM_P1;HPM_P2
2024/02/28 00:00:46;;;;;;;25.15;11.43;;;4.50;99.90;;;;;;5058673;28;20031;-54
2024/02/28 00:03:12;;;;;;;27.35;10.85;;;4.60;99.90;;;;;;5060107;28;20119;-54
2024/02/28 00:05:37;;;;;;;22.50;10.18;;;4.60;99.90;;;;;;5060147;28;20047;-53
2024/02/28 00:08:03;;;;;;;18.42;10.15;;;4.50;99.90;;;;;;5059365;28;20393;-51
2024/02/28 00:10:29;;;;;;;22.77;11.65;;;4.50;99.90;;;;;;5059229;28;20044;-53
2024/02/28 00:12:54;;;;;;;23.40;10.38;;;4.50;99.90;;;;;;5058382;28;20078;-54
2024/02/28 00:15:20;;;;;;;19.08;9.65;;;4.50;99.90;;;;;;5061919;28;20032;-53
2024/02/28 00:17:45;;;;;;;19.38;9.13;;;4.50;99.90;;;;;;5059028;28;20033;-48
2024/02/28 00:20:12;;;;;;;17.85;9.07;;;4.50;99.90;;;;;;5055719;28;20040;-50
2024/02/28 00:22:38;;;;;;;21.60;9.63;;;4.50;99.90;;;;;;5059515;28;20375;-53
2024/02/28 00:25:06;;;;;;;19.05;9.27;;;4.50;99.90;;;;;;5059416;28;20040;-52
2024/02/28 00:27:32;;;;;;;18.45;8.65;;;4.50;99.90;;;;;;5053732;28;20227;-51
2024/02/28 00:29:58;;;;;;;25.35;9.70;;;4.50;99.90;;;;;;5059449;28;20398;-53
2024/02/28 00:32:23;;;;;;;20.73;10.32;;;4.50;99.90;;;;;;5059257;28;20024;-53
2024/02/28 00:34:49;;;;;;;15.70;8.40;;;4.60;99.90;;;;;;5057826;28;20028;-50
2024/02/28 00:37:14;;;;;;;22.20;10.02;;;4.50;99.90;;;;;;5059299;28;20082;-51
2024/02/28 00:39:40;;;;;;;22.75;10.27;;;4.50;99.90;;;;;;5053157;28;20039;-52
2024/02/28 00:42:05;;;;;;;22.52;9.95;;;4.50;99.90;;;;;;5057676;28;20089;-49
2024/02/28 00:44:31;;;;;;;21.83;10.27;;;4.50;99.90;;;;;;5059529;28;20028;-51
2024/02/28 00:46:56;;;;;;;21.77;10.23;;;4.50;99.90;;;;;;5057705;28;20021;-54
2024/02/28 00:49:22;;;;;;;18.42;9.63;;;4.50;99.90;;;;;;5052962;28;20153;-48
2024/02/28 00:51:47;;;;;;;27.45;12.45;;;4.50;99.90;;;;;;5057311;28;20620;-54
2024/02/28 00:54:13;;;;;;;17.60;8.85;;;4.50;99.90;;;;;;5060587;28;20134;-51
2024/02/28 00:56:38;;;;;;;19.38;9.57;;;4.50;99.90;;;;;;5057721;28;20276;-54
2024/02/28 00:59:06;;;;;;;22.20;9.98;;;4.50;99.90;;;;;;5055304;28;20398;-53
2024/02/28 01:01:31;;;;;;;18.77;8.73;;;4.50;99.90;;;;;;5055614;28;20535;-54
2024/02/28 01:03:57;;;;;;;16.45;7.38;;;4.50;99.90;;;;;;5058315;28;20044;-50
2024/02/28 01:06:22;;;;;;;20.40;9.10;;;4.50;99.90;;;;;;5056652;28;20074;-52
2024/02/28 01:08:48;;;;;;;17.40;7.43;;;4.50;99.90;;;;;;5060384;28;20033;-55
2024/02/28 01:11:13;;;;;;;20.73;9.23;;;4.50;99.90;;;;;;5057142;28;20025;-49
2024/02/28 01:13:39;;;;;;;18.70;8.57;;;4.50;99.90;;;;;;5057409;28;20024;-52
2024/02/28 01:16:05;;;;;;;17.45;8.30;;;4.60;99.90;;;;;;5058427;28;20032;-51
2024/02/28 01:18:32;;;;;;;20.35;8.93;;;4.60;99.90;;;;;;5057211;28;20095;-52
2024/02/28 01:20:57;;;;;;;19.55;9.35;;;4.60;99.90;;;;;;5054531;28;20024;-55
2024/02/28 01:23:23;;;;;;;20.25;9.25;;;4.50;99.90;;;;;;5055564;28;20165;-53
2024/02/28 01:25:48;;;;;;;17.75;9.23;;;4.50;99.90;;;;;;5056895;28;20036;-54
2024/02/28 01:28:14;;;;;;;20.38;9.45;;;4.50;99.90;;;;;;5057457;28;20024;-52
2024/02/28 01:30:39;;;;;;;19.55;8.40;;;4.50;99.90;;;;;;5061058;28;20037;-54
2024/02/28 01:33:04;;;;;;;27.05;10.20;;;4.40;99.90;;;;;;5059259;28;20028;-54
2024/02/28 01:35:30;;;;;;;18.67;8.35;;;4.40;99.90;;;;;;5060372;28;20036;-54
2024/02/28 01:37:56;;;;;;;15.85;7.80;;;4.50;99.90;;;;;;5060991;28;20028;-53
2024/02/28 01:40:21;;;;;;;18.40;8.45;;;4.40;99.90;;;;;;5054870;28;20082;-51
2024/02/28 01:42:47;;;;;;;13.50;7.05;;;4.50;99.90;;;;;;5056805;28;20104;-54
2024/02/28 01:45:14;;;;;;;15.57;7.18;;;4.50;99.90;;;;;;5056731;28;20023;-53
2024/02/28 01:47:41;;;;;;;17.33;7.75;;;4.50;99.90;;;;;;5058576;28;20149;-53
2024/02/28 01:50:08;;;;;;;19.38;8.88;;;4.50;99.90;;;;;;5056863;28;20036;-55
2024/02/28 01:52:34;;;;;;;15.00;7.82;;;4.50;99.90;;;;;;5056648;28;20024;-52
2024/02/28 01:54:59;;;;;;;16.05;7.47;;;4.50;99.90;;;;;;5051661;28;20039;-50
2024/02/28 01:57:27;;;;;;;16.48;8.02;;;4.50;99.90;;;;;;5052398;28;20131;-54
2024/02/28 01:59:54;;;;;;;17.25;8.07;;;4.50;99.90;;;;;;5054608;28;20031;-53
2024/02/28 02:02:20;;;;;;;17.50;7.75;;;4.50;99.90;;;;;;5053025;28;20017;-53
2024/02/28 02:04:45;;;;;;;18.27;8.10;;;4.50;99.90;;;;;;5054227;28;20291;-53
2024/02/28 02:07:11;;;;;;;14.63;5.85;;;4.50;99.90;;;;;;5060255;28;20070;-54
2024/02/28 02:09:36;;;;;;;14.93;7.47;;;4.50;99.90;;;;;;5055469;28;20409;-55
2024/02/28 02:12:02;;;;;;;16.92;7.90;;;4.60;99.90;;;;;;5060209;28;20028;-50
2024/02/28 02:14:27;;;;;;;17.42;8.00;;;4.60;99.90;;;;;;5060199;28;20047;-54
2024/02/28 02:16:53;;;;;;;16.83;8.13;;;4.60;99.90;;;;;;5059848;28;20016;-51
2024/02/28 02:19:20;;;;;;;17.50;7.30;;;4.50;99.90;;;;;;5060001;28;20078;-49
2024/02/28 02:21:58;;;;;;;18.15;7.53;;;4.50;99.90;;;;;;5061860;28;20039;-54
2024/02/28 02:24:23;;;;;;;14.57;7.22;;;4.50;99.90;;;;;;5057070;28;20224;-53
2024/02/28 02:26:52;;;;;;;19.95;8.35;;;4.50;99.90;;;;;;5060193;28;20510;-53
2024/02/28 02:29:17;;;;;;;17.67;7.93;;;4.50;99.90;;;;;;5061921;28;20020;-55
2024/02/28 02:31:43;;;;;;;18.98;7.97;;;4.60;99.90;;;;;;5061461;28;20843;-50
2024/02/28 02:34:08;;;;;;;18.40;8.52;;;4.50;99.90;;;;;;5059948;28;20017;-53
2024/02/28 02:36:34;;;;;;;17.88;8.18;;;4.50;99.90;;;;;;5059266;28;20125;-54
2024/02/28 02:38:59;;;;;;;21.02;8.75;;;4.50;99.90;;;;;;5056555;28;20419;-55
2024/02/28 02:41:25;;;;;;;19.50;9.35;;;4.50;99.90;;;;;;5059527;28;20040;-54
2024/02/28 02:43:51;;;;;;;18.35;8.10;;;4.40;99.90;;;;;;5061475;28;20044;-52
2024/02/28 02:46:16;;;;;;;19.92;8.18;;;4.40;99.90;;;;;;5059212;28;20106;-53
2024/02/28 02:48:42;;;;;;;19.98;8.63;;;4.40;99.90;;;;;;5059731;28;20032;-53
2024/02/28 02:51:07;;;;;;;15.73;7.28;;;4.40;99.90;;;;;;5059179;28;20027;-53
2024/02/28 02:53:33;;;;;;;14.43;6.22;;;4.50;99.90;;;;;;5059175;28;20038;-55
2024/02/28 02:55:58;;;;;;;16.65;7.72;;;4.50;99.90;;;;;;5059925;28;20021;-51
2024/02/28 02:58:24;;;;;;;17.13;7.72;;;4.50;99.90;;;;;;5056662;28;20048;-53
2024/02/28 03:00:49;;;;;;;18.25;7.68;;;4.50;99.90;;;;;;5059285;28;20028;-50
2024/02/28 03:03:15;;;;;;;20.60;8.18;;;4.60;99.90;;;;;;5059327;28;20051;-55
2024/02/28 03:05:40;;;;;;;16.63;7.32;;;4.60;99.90;;;;;;5059007;28;20036;-52
2024/02/28 03:08:06;;;;;;;22.40;8.40;;;4.60;99.90;;;;;;5058935;28;20032;-53
2024/02/28 03:10:31;;;;;;;18.80;8.35;;;4.50;99.90;;;;;;5061007;28;20044;-52
2024/02/28 03:12:57;;;;;;;21.17;9.13;;;4.50;99.90;;;;;;5058908;28;20037;-51
2024/02/28 03:15:22;;;;;;;14.48;7.18;;;4.50;99.90;;;;;;5058675;28;23212;-54
2024/02/28 03:17:48;;;;;;;19.33;7.35;;;4.50;99.90;;;;;;5059437;28;20448;-55
2024/02/28 03:20:14;;;;;;;18.90;9.10;;;4.50;99.90;;;;;;5058811;28;20024;-54
2024/02/28 03:22:40;;;;;;;15.30;7.57;;;4.50;99.90;;;;;;5058708;28;20334;-54
2024/02/28 03:25:06;;;;;;;14.80;6.38;;;4.50;99.90;;;;;;5054646;28;20021;-55
2024/02/28 03:27:32;;;;;;;17.40;7.18;;;4.50;99.90;;;;;;5056378;28;20024;-52
2024/02/28 03:29:57;;;;;;;16.85;7.57;;;4.40;99.90;;;;;;5054776;28;20093;-53
2024/02/28 03:32:23;;;;;;;14.32;7.07;;;4.40;99.90;;;;;;5054841;28;20039;-53
2024/02/28 03:34:48;;;;;;;13.63;6.43;;;4.40;99.90;;;;;;5057466;28;20036;-54
2024/02/28 03:37:14;;;;;;;16.52;7.65;;;4.40;99.90;;;;;;5051953;28;20435;-51
2024/02/28 03:39:39;;;;;;;19.58;9.13;;;4.40;99.90;;;;;;5055967;28;20456;-53
2024/02/28 03:42:05;;;;;;;19.42;9.23;;;4.30;99.90;;;;;;5056940;28;20033;-52
2024/02/28 03:44:31;;;;;;;17.88;8.02;;;4.40;99.90;;;;;;5056205;28;20429;-51
2024/02/28 03:46:56;;;;;;;18.90;8.50;;;4.30;99.90;;;;;;5057023;28;20035;-52
2024/02/28 03:49:21;;;;;;;23.17;8.82;;;4.30;99.90;;;;;;5058429;28;20032;-50
2024/02/28 03:51:47;;;;;;;19.17;8.93;;;4.30;99.90;;;;;;5058884;28;20118;-53
2024/02/28 03:54:12;;;;;;;22.30;9.60;;;4.30;99.90;;;;;;5060454;28;20020;-53
2024/02/28 03:56:38;;;;;;;23.13;9.25;;;4.30;99.90;;;;;;5059918;28;20040;-54
2024/02/28 03:59:03;;;;;;;21.42;8.80;;;4.30;99.90;;;;;;5057791;28;20106;-53
2024/02/28 04:01:29;;;;;;;19.20;8.55;;;4.30;99.90;;;;;;5058400;28;20021;-53
2024/02/28 04:03:55;;;;;;;23.45;9.32;;;4.30;99.90;;;;;;5049034;28;20414;-55
2024/02/28 04:06:20;;;;;;;18.63;8.32;;;4.30;99.90;;;;;;5054074;28;20036;-53
2024/02/28 04:08:46;;;;;;;19.17;8.27;;;4.30;99.90;;;;;;5057928;28;20395;-49
2024/02/28 04:11:11;;;;;;;19.60;8.25;;;4.20;99.90;;;;;;5054301;28;20037;-52
2024/02/28 04:13:37;;;;;;;21.33;8.55;;;4.20;99.90;;;;;;5053750;28;20029;-54
2024/02/28 04:16:03;;;;;;;18.15;7.95;;;4.20;99.90;;;;;;5056518;28;20028;-52
2024/02/28 04:18:30;;;;;;;16.05;7.68;;;4.20;99.90;;;;;;5052534;28;20095;-52
2024/02/28 04:20:55;;;;;;;17.20;7.18;;;4.20;99.90;;;;;;5051243;28;20108;-54
2024/02/28 04:23:21;;;;;;;13.95;6.90;;;4.20;99.90;;;;;;5059859;28;20431;-55
2024/02/28 04:25:46;;;;;;;18.60;7.28;;;4.30;99.90;;;;;;5056243;28;20032;-51
2024/02/28 04:28:12;;;;;;;12.90;6.00;;;4.30;99.90;;;;;;5056930;28;20397;-54
2024/02/28 04:30:37;;;;;;;12.55;5.90;;;4.30;99.90;;;;;;5056490;28;20470;-53
2024/02/28 04:33:03;;;;;;;13.70;6.40;;;4.30;99.90;;;;;;5056718;28;20025;-52
2024/02/28 04:35:28;;;;;;;16.85;6.90;;;4.30;99.90;;;;;;5056587;28;20044;-55
2024/02/28 04:37:54;;;;;;;9.85;5.00;;;4.30;99.90;;;;;;5056925;28;20607;-54
2024/02/28 04:40:19;;;;;;;14.63;6.63;;;4.30;99.90;;;;;;5052390;28;20033;-54
2024/02/28 04:42:45;;;;;;;15.65;6.10;;;4.30;99.90;;;;;;5057978;28;20037;-53
2024/02/28 04:45:11;;;;;;;11.45;5.63;;;4.30;99.90;;;;;;5057844;28;20401;-55
2024/02/28 04:47:37;;;;;;;13.15;5.93;;;4.30;99.90;;;;;;5061793;28;20037;-52
2024/02/28 04:50:06;;;;;;;9.02;4.72;;;4.30;99.90;;;;;;5061201;28;20048;-53
2024/02/28 04:52:34;;;;;;;12.30;5.60;;;4.30;99.90;;;;;;5059799;28;20797;-55
2024/02/28 04:55:00;;;;;;;12.50;5.22;;;4.30;99.90;;;;;;5057266;28;20024;-52
2024/02/28 04:57:26;;;;;;;11.10;5.20;;;4.30;99.90;;;;;;5055012;28;20441;-53
2024/02/28 04:59:52;;;;;;;8.70;4.40;;;4.40;99.90;;;;;;5056316;28;20031;-53
2024/02/28 05:02:17;;;;;;;12.82;5.82;;;4.40;99.90;;;;;;5061205;28;20029;-56
2024/02/28 05:04:43;;;;;;;8.45;4.38;;;4.40;99.90;;;;;;5060373;28;20668;-51
2024/02/28 05:07:09;;;;;;;10.88;5.30;;;4.40;99.90;;;;;;5058302;28;20032;-55
2024/02/28 05:09:35;;;;;;;11.20;4.80;;;4.40;99.90;;;;;;5061264;28;20087;-53
2024/02/28 05:12:01;;;;;;;10.82;5.30;;;4.40;99.90;;;;;;5059730;28;20107;-55
2024/02/28 05:14:27;;;;;;;11.43;5.45;;;4.40;99.90;;;;;;5061627;28;20045;-55
2024/02/28 05:16:53;;;;;;;11.18;5.82;;;4.30;99.90;;;;;;5061553;28;20039;-55
2024/02/28 05:19:18;;;;;;;11.90;4.50;;;4.40;99.90;;;;;;5061401;28;20074;-54
2024/02/28 05:21:44;;;;;;;9.95;4.50;;;4.40;99.90;;;;;;5061444;28;20479;-53
2024/02/28 05:24:10;;;;;;;10.57;5.20;;;4.40;99.90;;;;;;5061164;28;20028;-55
2024/02/28 05:26:36;;;;;;;7.53;4.35;;;4.40;99.90;;;;;;5063240;28;20039;-51
2024/02/28 05:29:03;;;;;;;8.90;4.45;;;4.30;99.90;;;;;;5061524;28;20472;-55
2024/02/28 05:31:29;;;;;;;11.15;5.28;;;4.40;99.90;;;;;;5061156;28;20033;-53
2024/02/28 05:33:59;;;;;;;10.93;5.10;;;4.30;99.90;;;;;;5061193;28;20025;-54
2024/02/28 05:36:26;;;;;;;10.30;5.57;;;4.30;99.90;;;;;;5059487;28;20021;-54
2024/02/28 05:38:53;;;;;;;8.27;4.50;;;4.30;99.90;;;;;;5048944;28;20024;-55
2024/02/28 05:41:19;;;;;;;10.02;5.07;;;4.30;99.90;;;;;;5052787;28;20107;-55
2024/02/28 05:43:48;;;;;;;10.68;4.97;;;4.30;99.90;;;;;;5060796;28;20032;-52
2024/02/28 05:46:15;;;;;;;8.63;4.65;;;4.30;99.90;;;;;;5056915;28;20017;-53
2024/02/28 05:48:41;;;;;;;8.25;4.43;;;4.30;99.90;;;;;;5058695;28;20028;-50
2024/02/28 05:51:07;;;;;;;9.63;4.38;;;4.30;99.90;;;;;;5056949;28;20069;-50
2024/02/28 05:53:35;;;;;;;9.80;4.40;;;4.40;99.90;;;;;;5060482;28;20158;-51
2024/02/28 05:56:04;;;;;;;9.73;4.30;;;4.30;99.90;;;;;;5059916;28;20117;-51
2024/02/28 05:58:29;;;;;;;10.70;4.60;;;4.40;99.90;;;;;;5057238;28;20017;-54
2024/02/28 06:00:55;;;;;;;8.50;4.32;;;4.40;99.90;;;;;;5059912;28;20017;-54
2024/02/28 06:03:20;;;;;;;9.13;4.43;;;4.40;99.90;;;;;;5053603;28;20471;-52
2024/02/28 06:05:46;;;;;;;10.73;4.68;;;4.40;99.90;;;;;;5062220;28;20024;-50
2024/02/28 06:08:12;;;;;;;9.60;4.45;;;4.40;99.90;;;;;;5060146;28;20027;-52
2024/02/28 06:10:38;;;;;;;8.32;4.32;;;4.40;99.90;;;;;;5060066;28;20056;-52
2024/02/28 06:13:03;;;;;;;10.68;3.92;;;4.50;99.90;;;;;;5060127;28;20398;-54
2024/02/28 06:15:29;;;;;;;10.40;3.85;;;4.50;99.90;;;;;;5060473;28;20072;-53
2024/02/28 06:18:00;;;;;;;9.25;4.10;;;4.50;99.90;;;;;;5060268;28;20040;-49
2024/02/28 06:20:26;;;;;;;6.03;3.78;;;4.50;99.90;;;;;;5060502;28;20018;-53
2024/02/28 06:22:51;;;;;;;7.85;4.13;;;4.50;99.90;;;;;;5062111;28;20032;-53
2024/02/28 06:25:22;;;;;;;7.50;3.67;;;4.50;99.90;;;;;;5060293;28;20020;-54
2024/02/28 06:27:48;;;;;;;6.70;3.65;;;4.50;99.90;;;;;;5060305;28;20020;-50
2024/02/28 06:30:14;;;;;;;9.48;3.78;;;4.50;99.90;;;;;;5060118;28;20402;-53
2024/02/28 06:32:39;;;;;;;6.10;3.38;;;4.60;99.90;;;;;;5059306;28;20101;-54
2024/02/28 06:35:07;;;;;;;7.93;4.30;;;4.60;99.90;;;;;;5059626;28;20076;-53
2024/02/28 06:37:33;;;;;;;7.07;3.83;;;4.60;99.90;;;;;;5059404;28;20024;-53
2024/02/28 06:39:58;;;;;;;6.30;3.40;;;4.70;99.90;;;;;;5057526;28;20025;-49
2024/02/28 06:42:24;;;;;;;6.78;3.60;;;4.60;99.90;;;;;;5057473;28;20452;-54
2024/02/28 06:44:49;;;;;;;7.47;4.07;;;4.70;99.90;;;;;;5057972;28;20313;-53
2024/02/28 06:47:15;;;;;;;7.10;3.45;;;4.70;99.90;;;;;;5059704;28;20469;-54
2024/02/28 06:49:40;;;;;;;6.15;2.90;;;4.70;99.90;;;;;;5058981;28;20036;-50
2024/02/28 06:52:06;;;;;;;5.85;3.47;;;4.70;99.90;;;;;;5059875;28;20032;-52
2024/02/28 06:54:31;;;;;;;6.40;3.75;;;4.70;99.90;;;;;;5061522;28;20032;-54
2024/02/28 06:56:57;;;;;;;6.15;3.33;;;4.70;99.90;;;;;;5059449;28;20029;-53
2024/02/28 06:59:23;;;;;;;4.88;3.25;;;4.70;99.90;;;;;;5058141;28;20619;-51
2024/02/28 07:01:48;;;;;;;6.53;3.88;;;4.70;99.90;;;;;;5053100;28;20600;-54
2024/02/28 07:04:14;;;;;;;6.53;3.20;;;4.80;99.90;;;;;;5053920;28;20020;-54
2024/02/28 07:06:39;;;;;;;7.80;3.75;;;4.80;99.90;;;;;;5058774;28;20440;-49
2024/02/28 07:09:08;;;;;;;5.97;3.85;;;4.80;99.90;;;;;;5061025;28;20064;-54
2024/02/28 07:11:33;;;;;;;10.05;4.00;;;4.80;99.90;;;;;;5059224;28;20555;-51
2024/02/28 07:14:02;;;;;;;7.30;3.97;;;4.80;99.90;;;;;;5059452;28;20024;-54
2024/02/28 07:16:32;;;;;;;8.80;4.53;;;4.80;99.90;;;;;;5059119;28;20027;-52
2024/02/28 07:18:57;;;;;;;6.55;4.15;;;4.90;99.90;;;;;;5059384;28;20436;-51
2024/02/28 07:21:23;;;;;;;6.93;4.03;;;4.90;99.90;;;;;;5059096;28;20024;-53
2024/02/28 07:23:49;;;;;;;8.82;4.05;;;4.90;99.90;;;;;;5059206;28;20063;-54
2024/02/28 07:26:17;;;;;;;6.18;3.70;;;4.90;99.90;;;;;;5058860;28;20040;-52
2024/02/28 07:28:49;;;;;;;10.23;3.75;;;4.90;99.90;;;;;;5060934;28;20481;-53
2024/02/28 07:31:15;;;;;;;9.52;4.05;;;4.90;99.90;;;;;;5059062;28;20062;-52
2024/02/28 07:33:41;;;;;;;6.00;3.50;;;4.90;99.90;;;;;;5061135;28;20028;-52
2024/02/28 07:36:06;;;;;;;5.88;3.45;;;4.90;99.90;;;;;;5058741;28;20326;-55
2024/02/28 07:38:32;;;;;;;6.60;3.60;;;4.90;99.90;;;;;;5058453;28;20044;-53
2024/02/28 07:40:58;;;;;;;8.13;3.83;;;4.90;99.90;;;;;;5053874;28;20489;-55
2024/02/28 07:43:23;;;;;;;7.82;4.47;;;4.90;99.90;;;;;;5058839;28;20030;-55
2024/02/28 07:45:49;;;;;;;7.38;3.88;;;4.80;99.90;;;;;;5058890;28;20025;-52
2024/02/28 07:48:17;;;;;;;8.48;4.15;;;4.80;99.90;;;;;;5060829;28;20102;-52
2024/02/28 07:50:44;;;;;;;7.65;3.33;;;4.90;99.90;;;;;;5059149;28;20043;-54
2024/02/28 07:53:09;;;;;;;7.88;3.38;;;4.90;99.90;;;;;;5058783;28;20036;-54
2024/02/28 07:55:35;;;;;;;6.00;3.40;;;4.90;99.90;;;;;;5058987;28;20471;-54
2024/02/28 07:58:00;;;;;;;5.78;3.30;;;4.90;99.90;;;;;;5058777;28;20033;-55
2024/02/28 08:00:26;;;;;;;7.30;3.33;;;5.00;99.90;;;;;;5058770;28;20121;-53
2024/02/28 08:02:51;;;;;;;7.00;3.50;;;5.10;99.90;;;;;;5058737;28;20030;-53
2024/02/28 08:05:18;;;;;;;5.03;3.53;;;5.10;99.90;;;;;;5060571;28;20398;-52
2024/02/28 08:07:43;;;;;;;4.32;2.63;;;5.20;99.90;;;;;;5057161;28;20533;-52
2024/02/28 08:10:10;;;;;;;5.15;2.97;;;5.30;99.90;;;;;;5057728;28;20106;-52
2024/02/28 08:12:36;;;;;;;4.38;2.72;;;5.30;99.90;;;;;;5057741;28;20036;-50
2024/02/28 08:15:02;;;;;;;5.53;3.25;;;5.30;99.90;;;;;;5058438;28;20405;-49
2024/02/28 08:17:28;;;;;;;5.07;3.20;;;5.40;99.90;;;;;;5055965;28;20028;-48
2024/02/28 08:19:54;;;;;;;5.07;3.00;;;5.40;99.90;;;;;;5058717;28;20027;-52
2024/02/28 08:22:20;;;;;;;4.88;2.95;;;5.30;99.90;;;;;;5059933;28;20029;-54
2024/02/28 08:24:45;;;;;;;5.78;2.72;;;5.30;99.90;;;;;;5062619;28;20040;-54
2024/02/28 08:27:11;;;;;;;4.53;2.75;;;5.30;99.90;;;;;;5062310;28;20105;-52
2024/02/28 08:29:43;;;;;;;7.63;3.53;;;5.30;99.90;;;;;;5062472;28;20147;-52
2024/02/28 08:32:09;;;;;;;7.25;3.38;;;5.30;99.90;;;;;;5062232;28;20056;-54
2024/02/28 08:34:35;;;;;;;9.95;4.93;;;5.30;99.90;;;;;;5062150;28;20033;-54
2024/02/28 08:37:00;;;;;;;8.18;4.32;;;5.30;99.90;;;;;;5062444;28;20032;-54
2024/02/28 08:39:26;;;;;;;7.40;4.05;;;5.30;99.90;;;;;;5057834;28;20039;-55
2024/02/28 08:41:51;;;;;;;8.25;4.80;;;5.30;99.90;;;;;;5062141;28;20436;-55
2024/02/28 08:44:17;;;;;;;10.27;4.63;;;5.40;99.90;;;;;;5059138;28;20044;-53
2024/02/28 08:46:43;;;;;;;10.00;5.15;;;5.30;99.90;;;;;;5062030;28;20055;-52
2024/02/28 08:49:08;;;;;;;9.48;5.22;;;5.30;99.90;;;;;;5058135;28;20116;-53
2024/02/28 08:51:34;;;;;;;10.50;5.05;;;5.30;99.90;;;;;;5053920;28;20025;-53
2024/02/28 08:54:00;;;;;;;8.80;4.80;;;5.30;99.90;;;;;;5064173;28;20078;-53
2024/02/28 08:56:25;;;;;;;10.60;6.18;;;5.30;99.90;;;;;;5059581;28;20070;-54
2024/02/28 08:58:51;;;;;;;12.43;6.28;;;5.20;99.90;;;;;;5061763;28;20032;-52
2024/02/28 09:01:16;;;;;;;11.18;5.85;;;5.20;99.90;;;;;;5061615;28;20024;-55
2024/02/28 09:03:42;;;;;;;10.35;4.80;;;5.10;99.90;;;;;;5061923;28;20040;-54
2024/02/28 09:06:08;;;;;;;8.77;4.70;;;5.10;99.90;;;;;;5063703;28;20524;-54
2024/02/28 09:08:33;;;;;;;7.82;4.43;;;5.10;99.90;;;;;;5061509;28;20029;-54
2024/02/28 09:10:58;;;;;;;14.25;5.70;;;5.20;99.90;;;;;;5061645;28;20501;-52
2024/02/28 09:13:24;;;;;;;11.23;5.88;;;5.10;99.90;;;;;;5057224;28;20106;-50
2024/02/28 09:15:49;;;;;;;13.57;6.85;;;5.10;99.90;;;;;;5061588;28;20020;-54
2024/02/28 09:18:16;;;;;;;11.45;5.68;;;5.10;99.90;;;;;;5061479;28;20516;-53
2024/02/28 09:20:42;;;;;;;9.93;5.45;;;5.10;99.90;;;;;;5061976;28;20025;-52
2024/02/28 09:23:07;;;;;;;12.50;6.63;;;5.10;99.90;;;;;;5061475;28;20036;-52
2024/02/28 09:25:34;;;;;;;9.43;5.22;;;5.10;99.90;;;;;;5061739;28;20821;-54
2024/02/28 09:28:00;;;;;;;10.32;5.40;;;5.10;99.90;;;;;;5061501;28;20012;-53
2024/02/28 09:30:26;;;;;;;11.80;6.05;;;5.10;99.90;;;;;;5060897;28;20032;-53
2024/02/28 09:32:51;;;;;;;11.38;6.10;;;5.10;99.90;;;;;;5061389;28;20032;-54
2024/02/28 09:35:17;;;;;;;10.50;5.63;;;5.10;99.90;;;;;;5061251;28;20052;-52
2024/02/28 09:37:42;;;;;;;11.95;6.63;;;5.10;99.90;;;;;;5062934;28;20107;-54
2024/02/28 09:40:10;;;;;;;11.38;7.07;;;5.10;99.90;;;;;;5054798;28;20481;-53
2024/02/28 09:42:36;;;;;;;13.82;6.60;;;5.20;99.90;;;;;;5058763;28;20044;-53
2024/02/28 09:45:04;;;;;;;13.73;7.05;;;5.10;99.90;;;;;;5059338;28;20033;-53
2024/02/28 09:47:30;;;;;;;14.73;7.35;;;5.10;99.90;;;;;;5056943;28;20494;-54
2024/02/28 09:49:58;;;;;;;17.02;7.53;;;5.10;99.90;;;;;;5056081;28;20059;-52
2024/02/28 09:52:24;;;;;;;14.27;7.00;;;5.10;99.90;;;;;;5048808;28;20119;-55
2024/02/28 09:54:50;;;;;;;11.90;7.05;;;5.10;99.90;;;;;;5047205;28;20096;-54
2024/02/28 09:57:16;;;;;;;15.23;7.55;;;5.10;99.90;;;;;;5058169;28;20017;-54
2024/02/28 09:59:42;;;;;;;14.48;7.10;;;5.10;99.90;;;;;;5061521;28;20112;-53
2024/02/28 10:02:11;;;;;;;17.08;7.75;;;5.10;99.90;;;;;;5060003;28;20024;-52
2024/02/28 10:04:37;;;;;;;12.88;6.95;;;5.10;99.90;;;;;;5064882;28;20032;-54
2024/02/28 10:07:15;;;;;;;14.68;7.88;;;5.10;99.90;;;;;;5060153;28;20012;-55
2024/02/28 10:09:42;;;;;;;17.02;7.85;;;5.10;99.90;;;;;;5060487;28;20040;-50
2024/02/28 10:12:07;;;;;;;15.68;6.95;;;5.10;99.90;;;;;;5060299;28;20028;-51
2024/02/28 10:14:33;;;;;;;16.13;7.75;;;5.10;99.90;;;;;;5060737;28;20090;-54
2024/02/28 10:16:59;;;;;;;16.67;7.93;;;5.10;99.90;;;;;;5061764;28;20529;-52
2024/02/28 10:19:25;;;;;;;15.45;8.13;;;5.10;99.90;;;;;;5060615;28;20039;-53
2024/02/28 10:21:51;;;;;;;15.25;7.60;;;5.10;99.90;;;;;;5056352;28;20016;-53
2024/02/28 10:24:16;;;;;;;14.20;7.50;;;5.10;99.90;;;;;;5060155;28;20046;-53
2024/02/28 10:26:44;;;;;;;12.93;7.32;;;5.00;99.90;;;;;;5059998;28;20398;-54
2024/02/28 10:29:09;;;;;;;11.43;6.72;;;5.00;99.90;;;;;;5060119;28;20024;-55
2024/02/28 10:31:35;;;;;;;10.73;5.70;;;5.00;99.90;;;;;;5059961;28;20103;-55
2024/02/28 10:34:02;;;;;;;11.10;6.13;;;5.00;99.90;;;;;;5059342;28;20445;-50
2024/02/28 10:36:31;;;;;;;10.85;5.93;;;5.00;99.90;;;;;;5061469;28;20409;-52
2024/02/28 10:38:57;;;;;;;7.55;4.47;;;5.00;99.90;;;;;;5053469;28;20021;-53
2024/02/28 10:41:23;;;;;;;8.73;4.88;;;5.00;99.90;;;;;;5059215;28;20040;-55
2024/02/28 10:43:50;;;;;;;11.50;4.40;;;5.00;99.90;;;;;;5055536;28;20024;-53
2024/02/28 10:46:16;;;;;;;8.23;4.28;;;5.00;99.90;;;;;;5052291;28;20036;-53
2024/02/28 10:48:42;;;;;;;10.13;5.60;;;5.00;99.90;;;;;;5056858;28;20032;-51
2024/02/28 10:51:10;;;;;;;9.73;4.47;;;5.10;99.90;;;;;;5056856;28;20528;-53
2024/02/28 10:53:41;;;;;;;9.77;5.75;;;5.10;99.90;;;;;;5059040;28;20159;-55
2024/02/28 10:56:10;;;;;;;9.02;5.28;;;5.10;99.90;;;;;;5055081;28;20024;-53
2024/02/28 10:58:39;;;;;;;9.88;5.05;;;5.00;99.90;;;;;;5058337;28;20032;-54
2024/02/28 11:01:06;;;;;;;9.07;4.90;;;5.00;99.90;;;;;;5058697;28;20032;-53
2024/02/28 11:03:32;;;;;;;9.25;5.03;;;4.90;99.90;;;;;;5054637;28;20116;-54
2024/02/28 11:05:57;;;;;;;11.60;5.00;;;4.90;99.90;;;;;;5056483;28;20024;-51
2024/02/28 11:08:24;;;;;;;11.50;4.85;;;4.90;99.90;;;;;;5056642;28;20429;-55
2024/02/28 11:10:57;;;;;;;10.43;5.47;;;4.80;99.90;;;;;;5056677;28;20048;-53
2024/02/28 11:13:25;;;;;;;8.48;4.85;;;4.80;99.90;;;;;;5055121;28;20383;-54
2024/02/28 11:15:51;;;;;;;10.02;5.80;;;4.90;99.90;;;;;;5056424;28;20043;-52
2024/02/28 11:18:17;;;;;;;13.35;7.07;;;4.90;99.90;;;;;;5056196;28;20107;-57
2024/02/28 11:20:46;;;;;;;10.55;5.85;;;4.80;99.90;;;;;;5058133;28;20027;-54
2024/02/28 11:23:12;;;;;;;10.55;5.70;;;4.80;99.90;;;;;;5058106;28;20081;-53
2024/02/28 11:25:37;;;;;;;11.93;6.97;;;4.80;99.90;;;;;;5056821;28;20048;-53
2024/02/28 11:28:04;;;;;;;11.73;6.38;;;4.80;99.90;;;;;;5056553;28;20029;-53
2024/02/28 11:30:29;;;;;;;12.15;6.75;;;4.80;99.90;;;;;;5056494;28;20082;-50
2024/02/28 11:32:58;;;;;;;12.68;6.70;;;4.80;99.90;;;;;;5056092;28;20064;-53
2024/02/28 11:35:23;;;;;;;11.55;6.38;;;4.90;99.90;;;;;;5052996;28;20579;-52
2024/02/28 11:37:50;;;;;;;10.52;6.25;;;4.80;99.90;;;;;;5055014;28;20032;-55
2024/02/28 11:40:15;;;;;;;10.88;6.43;;;4.80;99.90;;;;;;5054107;28;20033;-54
2024/02/28 11:42:41;;;;;;;11.27;6.32;;;4.80;99.90;;;;;;5058895;28;20036;-54
2024/02/28 11:45:10;;;;;;;10.93;6.18;;;4.80;99.90;;;;;;5058423;28;20105;-50
2024/02/28 11:47:35;;;;;;;12.70;6.60;;;4.80;99.90;;;;;;5057406;28;20078;-54
2024/02/28 11:50:02;;;;;;;13.23;6.80;;;4.80;99.90;;;;;;5057588;28;20397;-49
2024/02/28 11:52:32;;;;;;;10.05;5.63;;;4.80;99.90;;;;;;5058673;28;20057;-54
2024/02/28 11:54:57;;;;;;;10.52;6.15;;;4.80;99.90;;;;;;5058726;28;20494;-53
2024/02/28 11:57:23;;;;;;;15.90;7.38;;;4.70;99.90;;;;;;5062369;28;20036;-54
2024/02/28 11:59:49;;;;;;;10.23;6.35;;;4.70;99.90;;;;;;5063645;28;20032;-54
2024/02/28 12:02:15;;;;;;;12.90;6.88;;;4.70;99.90;;;;;;5064491;28;20016;-51
2024/02/28 12:04:42;;;;;;;13.55;6.70;;;4.70;99.90;;;;;;5061814;28;20020;-49
2024/02/28 12:07:08;;;;;;;14.73;7.28;;;4.60;99.90;;;;;;5056625;28;20052;-50
2024/02/28 12:09:34;;;;;;;11.63;6.80;;;4.60;99.90;;;;;;5055459;28;20348;-55
2024/02/28 12:12:06;;;;;;;14.88;6.88;;;4.70;99.90;;;;;;5056584;28;20020;-53
2024/02/28 12:14:33;;;;;;;15.93;7.43;;;4.70;99.90;;;;;;5053965;28;20622;-52
2024/02/28 12:16:58;;;;;;;13.88;6.78;;;4.70;99.90;;;;;;5055077;28;20020;-54
2024/02/28 12:19:24;;;;;;;16.98;7.88;;;4.70;99.90;;;;;;5056029;28;20027;-53
2024/02/28 12:21:49;;;;;;;13.98;7.03;;;4.70;99.90;;;;;;5059942;28;20050;-52
2024/02/28 12:24:15;;;;;;;16.02;7.75;;;4.70;99.90;;;;;;5057589;28;20040;-53
2024/02/28 12:26:41;;;;;;;14.52;7.80;;;4.80;99.90;;;;;;5057703;28;20552;-53
2024/02/28 12:29:07;;;;;;;17.50;8.20;;;4.80;99.90;;;;;;5056697;28;20035;-53
2024/02/28 12:31:33;;;;;;;16.08;8.38;;;4.80;99.90;;;;;;5054752;28;20028;-54
2024/02/28 12:33:59;;;;;;;16.75;7.80;;;4.70;99.90;;;;;;5059777;28;20052;-54
2024/02/28 12:36:24;;;;;;;19.02;8.75;;;4.70;99.90;;;;;;5057608;28;20097;-51
2024/02/28 12:38:50;;;;;;;13.82;7.82;;;4.70;99.90;;;;;;5047473;28;20028;-54
2024/02/28 12:41:17;;;;;;;17.40;7.93;;;4.80;99.90;;;;;;5054975;28;20398;-53
2024/02/28 12:43:42;;;;;;;19.65;7.88;;;4.80;99.90;;;;;;5060271;28;20028;-52